sensor_id;sensor_type;location;lat;lon;timestamp;pressure;altitude;pressure_sealevel;temperature
68911;BMP180;55953;51.650;-0.522;2023-06-14T00:02:03;100842.60;;;15.40
68911;BMP180;55953;51.650;-0.522;2023-06-14T00:04:31;100842.20;;;15.40
68911;BMP180;55953;51.650;-0.522;2023-06-14T00:06:59;100846.80;;;15.30
68911;BMP180;55953;51.650;-0.522;2023-06-14T00:09:27;100848.80;;;15.20
68911;BMP180;55953;51.650;-0.522;2023-06-14T00:11:55;100856.00;;;15.10
68911;BMP180;55953;51.650;-0.522;2023-06-14T00:14:23;100861.60;;;15.10
68911;BMP180;55953;51.650;-0.522;2023-06-14T00:16:50;100859.20;;;15.00
68911;BMP180;55953;51.650;-0.522;2023-06-14T00:19:20;100859.20;;;14.90
68911;BMP180;55953;51.650;-0.522;2023-06-14T00:21:48;100861.60;;;14.90
68911;BMP180;55953;51.650;-0.522;2023-06-14T00:24:17;100865.40;;;14.90
68911;BMP180;55953;51.650;-0.522;2023-06-14T00:26:45;100867.20;;;14.80
68911;BMP180;55953;51.650;-0.522;2023-06-14T00:29:12;100869.00;;;14.68
68911;BMP180;55953;51.650;-0.522;2023-06-14T00:31:40;100864.00;;;14.60
68911;BMP180;55953;51.650;-0.522;2023-06-14T00:34:08;100864.40;;;14.50
68911;BMP180;55953;51.650;-0.522;2023-06-14T00:36:37;100865.40;;;14.40
68911;BMP180;55953;51.650;-0.522;2023-06-14T00:39:04;100858.20;;;14.30
68911;BMP180;55953;51.650;-0.522;2023-06-14T00:41:32;100861.80;;;14.20
68911;BMP180;55953;51.650;-0.522;2023-06-14T00:44:00;100857.40;;;14.10
68911;BMP180;55953;51.650;-0.522;2023-06-14T00:46:28;100854.00;;;14.00
68911;BMP180;55953;51.650;-0.522;2023-06-14T00:48:58;100857.60;;;13.90
68911;BMP180;55953;51.650;-0.522;2023-06-14T00:51:26;100863.20;;;13.82
68911;BMP180;55953;51.650;-0.522;2023-06-14T00:53:55;100863.00;;;13.80
68911;BMP180;55953;51.650;-0.522;2023-06-14T00:56:23;100860.00;;;13.70
68911;BMP180;55953;51.650;-0.522;2023-06-14T00:58:51;100864.40;;;13.70
68911;BMP180;55953;51.650;-0.522;2023-06-14T01:01:19;100866.20;;;13.66
68911;BMP180;55953;51.650;-0.522;2023-06-14T01:03:47;100863.80;;;13.60
68911;BMP180;55953;51.650;-0.522;2023-06-14T01:06:31;100864.20;;;13.50
68911;BMP180;55953;51.650;-0.522;2023-06-14T01:12:00;100859.20;;;13.40
68911;BMP180;55953;51.650;-0.522;2023-06-14T01:14:32;100860.20;;;13.38
68911;BMP180;55953;51.650;-0.522;2023-06-14T01:17:02;100861.40;;;13.30
68911;BMP180;55953;51.650;-0.522;2023-06-14T01:19:30;100861.60;;;13.20
68911;BMP180;55953;51.650;-0.522;2023-06-14T01:22:02;100864.00;;;13.20
68911;BMP180;55953;51.650;-0.522;2023-06-14T01:24:30;100871.20;;;13.20
68911;BMP180;55953;51.650;-0.522;2023-06-14T01:27:03;100867.20;;;13.20
68911;BMP180;55953;51.650;-0.522;2023-06-14T01:29:32;100866.00;;;13.20
68911;BMP180;55953;51.650;-0.522;2023-06-14T01:32:01;100868.40;;;13.10
68911;BMP180;55953;51.650;-0.522;2023-06-14T01:34:31;100864.40;;;13.10
68911;BMP180;55953;51.650;-0.522;2023-06-14T01:37:01;100860.80;;;13.10
68911;BMP180;55953;51.650;-0.522;2023-06-14T01:39:32;100856.40;;;13.02
68911;BMP180;55953;51.650;-0.522;2023-06-14T01:42:00;100854.60;;;13.00
68911;BMP180;55953;51.650;-0.522;2023-06-14T01:44:30;100851.00;;;12.90
68911;BMP180;55953;51.650;-0.522;2023-06-14T01:47:01;100855.80;;;12.90
68911;BMP180;55953;51.650;-0.522;2023-06-14T01:49:29;100857.00;;;12.90
68911;BMP180;55953;51.650;-0.522;2023-06-14T01:51:57;100859.60;;;12.80
68911;BMP180;55953;51.650;-0.522;2023-06-14T01:54:25;100855.80;;;12.80
68911;BMP180;55953;51.650;-0.522;2023-06-14T01:56:53;100853.00;;;12.78
68911;BMP180;55953;51.650;-0.522;2023-06-14T01:59:22;100853.20;;;12.70
68911;BMP180;55953;51.650;-0.522;2023-06-14T02:01:49;100852.00;;;12.70
68911;BMP180;55953;51.650;-0.522;2023-06-14T02:04:18;100849.80;;;12.60
68911;BMP180;55953;51.650;-0.522;2023-06-14T02:06:47;100853.80;;;12.60
68911;BMP180;55953;51.650;-0.522;2023-06-14T02:09:15;100852.80;;;12.60
68911;BMP180;55953;51.650;-0.522;2023-06-14T02:11:43;100850.00;;;12.52
68911;BMP180;55953;51.650;-0.522;2023-06-14T02:14:11;100854.80;;;12.50
68911;BMP180;55953;51.650;-0.522;2023-06-14T02:16:39;100851.40;;;12.44
68911;BMP180;55953;51.650;-0.522;2023-06-14T02:19:08;100841.80;;;12.40
68911;BMP180;55953;51.650;-0.522;2023-06-14T02:21:36;100833.80;;;12.30
68911;BMP180;55953;51.650;-0.522;2023-06-14T02:24:06;100834.60;;;12.30
68911;BMP180;55953;51.650;-0.522;2023-06-14T02:26:34;100841.60;;;12.30
68911;BMP180;55953;51.650;-0.522;2023-06-14T02:29:02;100837.60;;;12.20
68911;BMP180;55953;51.650;-0.522;2023-06-14T02:31:30;100839.00;;;12.20
68911;BMP180;55953;51.650;-0.522;2023-06-14T02:33:57;100837.20;;;12.18
68911;BMP180;55953;51.650;-0.522;2023-06-14T02:36:25;100835.00;;;12.18
68911;BMP180;55953;51.650;-0.522;2023-06-14T02:38:53;100835.60;;;12.10
68911;BMP180;55953;51.650;-0.522;2023-06-14T02:41:21;100830.80;;;12.10
68911;BMP180;55953;51.650;-0.522;2023-06-14T02:43:49;100831.00;;;12.10
68911;BMP180;55953;51.650;-0.522;2023-06-14T02:46:17;100830.00;;;12.10
68911;BMP180;55953;51.650;-0.522;2023-06-14T02:48:45;100829.80;;;12.08
68911;BMP180;55953;51.650;-0.522;2023-06-14T02:51:13;100830.20;;;12.02
68911;BMP180;55953;51.650;-0.522;2023-06-14T02:53:41;100829.00;;;12.00
68911;BMP180;55953;51.650;-0.522;2023-06-14T02:56:09;100836.40;;;12.00
68911;BMP180;55953;51.650;-0.522;2023-06-14T02:58:38;100832.20;;;12.00
68911;BMP180;55953;51.650;-0.522;2023-06-14T03:01:07;100830.80;;;12.00
68911;BMP180;55953;51.650;-0.522;2023-06-14T03:03:35;100825.00;;;12.00
68911;BMP180;55953;51.650;-0.522;2023-06-14T03:06:04;100824.60;;;12.00
68911;BMP180;55953;51.650;-0.522;2023-06-14T03:08:34;100827.60;;;12.00
68911;BMP180;55953;51.650;-0.522;2023-06-14T03:11:10;100826.60;;;12.00
68911;BMP180;55953;51.650;-0.522;2023-06-14T03:13:38;100823.80;;;12.00
68911;BMP180;55953;51.650;-0.522;2023-06-14T03:16:06;100829.00;;;12.00
68911;BMP180;55953;51.650;-0.522;2023-06-14T03:18:36;100828.20;;;12.00
68911;BMP180;55953;51.650;-0.522;2023-06-14T03:21:05;100831.60;;;12.00
68911;BMP180;55953;51.650;-0.522;2023-06-14T03:23:37;100830.00;;;12.00
68911;BMP180;55953;51.650;-0.522;2023-06-14T03:26:05;100831.80;;;11.98
68911;BMP180;55953;51.650;-0.522;2023-06-14T03:28:33;100832.80;;;12.00
68911;BMP180;55953;51.650;-0.522;2023-06-14T03:31:01;100831.20;;;12.00
68911;BMP180;55953;51.650;-0.522;2023-06-14T03:33:31;100833.80;;;12.00
68911;BMP180;55953;51.650;-0.522;2023-06-14T03:35:59;100831.80;;;12.00
68911;BMP180;55953;51.650;-0.522;2023-06-14T03:38:27;100833.40;;;12.00
68911;BMP180;55953;51.650;-0.522;2023-06-14T03:40:55;100842.40;;;12.00
68911;BMP180;55953;51.650;-0.522;2023-06-14T03:43:23;100836.00;;;12.00
68911;BMP180;55953;51.650;-0.522;2023-06-14T03:45:51;100837.80;;;11.96
68911;BMP180;55953;51.650;-0.522;2023-06-14T03:48:19;100840.60;;;11.92
68911;BMP180;55953;51.650;-0.522;2023-06-14T03:50:48;100838.60;;;11.96
68911;BMP180;55953;51.650;-0.522;2023-06-14T03:53:15;100844.80;;;11.90
68911;BMP180;55953;51.650;-0.522;2023-06-14T03:55:47;100845.20;;;11.90
68911;BMP180;55953;51.650;-0.522;2023-06-14T03:58:20;100836.00;;;11.90
68911;BMP180;55953;51.650;-0.522;2023-06-14T04:00:47;100837.20;;;11.90
68911;BMP180;55953;51.650;-0.522;2023-06-14T04:03:15;100840.20;;;11.90
68911;BMP180;55953;51.650;-0.522;2023-06-14T04:05:43;100845.20;;;11.90
68911;BMP180;55953;51.650;-0.522;2023-06-14T04:08:12;100843.60;;;11.90
68911;BMP180;55953;51.650;-0.522;2023-06-14T04:10:42;100842.60;;;11.90
68911;BMP180;55953;51.650;-0.522;2023-06-14T04:13:09;100842.80;;;11.90
68911;BMP180;55953;51.650;-0.522;2023-06-14T04:15:40;100837.60;;;12.00
68911;BMP180;55953;51.650;-0.522;2023-06-14T04:18:13;100843.20;;;12.00
68911;BMP180;55953;51.650;-0.522;2023-06-14T04:20:41;100847.40;;;12.00
68911;BMP180;55953;51.650;-0.522;2023-06-14T04:23:17;100849.20;;;12.00
68911;BMP180;55953;51.650;-0.522;2023-06-14T04:25:46;100852.20;;;12.00
68911;BMP180;55953;51.650;-0.522;2023-06-14T04:28:15;100847.40;;;12.00
68911;BMP180;55953;51.650;-0.522;2023-06-14T04:30:47;100853.60;;;12.10
68911;BMP180;55953;51.650;-0.522;2023-06-14T04:33:17;100851.60;;;12.10
68911;BMP180;55953;51.650;-0.522;2023-06-14T04:35:45;100846.40;;;12.20
68911;BMP180;55953;51.650;-0.522;2023-06-14T04:38:16;100844.40;;;12.20
68911;BMP180;55953;51.650;-0.522;2023-06-14T04:40:44;100849.00;;;12.30
68911;BMP180;55953;51.650;-0.522;2023-06-14T04:43:16;100849.00;;;12.30
68911;BMP180;55953;51.650;-0.522;2023-06-14T04:45:47;100850.20;;;12.30
68911;BMP180;55953;51.650;-0.522;2023-06-14T04:48:15;100850.40;;;12.40
68911;BMP180;55953;51.650;-0.522;2023-06-14T04:50:48;100854.00;;;12.40
68911;BMP180;55953;51.650;-0.522;2023-06-14T04:53:20;100856.00;;;12.50
68911;BMP180;55953;51.650;-0.522;2023-06-14T04:55:53;100856.00;;;12.50
68911;BMP180;55953;51.650;-0.522;2023-06-14T04:58:21;100853.00;;;12.58
68911;BMP180;55953;51.650;-0.522;2023-06-14T05:00:49;100852.40;;;12.60
68911;BMP180;55953;51.650;-0.522;2023-06-14T05:03:17;100852.20;;;12.70
68911;BMP180;55953;51.650;-0.522;2023-06-14T05:05:46;100849.20;;;12.78
68911;BMP180;55953;51.650;-0.522;2023-06-14T05:08:13;100855.40;;;12.80
68911;BMP180;55953;51.650;-0.522;2023-06-14T05:10:42;100853.80;;;12.80
68911;BMP180;55953;51.650;-0.522;2023-06-14T05:13:09;100854.00;;;12.84
68911;BMP180;55953;51.650;-0.522;2023-06-14T05:15:38;100857.60;;;12.90
68911;BMP180;55953;51.650;-0.522;2023-06-14T05:18:06;100857.60;;;12.92
68911;BMP180;55953;51.650;-0.522;2023-06-14T05:20:36;100860.40;;;13.00
68911;BMP180;55953;51.650;-0.522;2023-06-14T05:23:09;100862.40;;;13.00
68911;BMP180;55953;51.650;-0.522;2023-06-14T05:25:44;100859.80;;;13.10
68911;BMP180;55953;51.650;-0.522;2023-06-14T05:28:12;100860.20;;;13.20
68911;BMP180;55953;51.650;-0.522;2023-06-14T05:30:40;100857.20;;;13.20
68911;BMP180;55953;51.650;-0.522;2023-06-14T05:33:08;100862.00;;;13.30
68911;BMP180;55953;51.650;-0.522;2023-06-14T05:35:36;100860.40;;;13.40
68911;BMP180;55953;51.650;-0.522;2023-06-14T05:38:05;100853.20;;;13.40
68911;BMP180;55953;51.650;-0.522;2023-06-14T05:40:35;100850.00;;;13.50
68911;BMP180;55953;51.650;-0.522;2023-06-14T05:43:03;100857.40;;;13.58
68911;BMP180;55953;51.650;-0.522;2023-06-14T05:45:31;100851.00;;;13.60
68911;BMP180;55953;51.650;-0.522;2023-06-14T05:47:59;100852.00;;;13.70
68911;BMP180;55953;51.650;-0.522;2023-06-14T05:50:27;100852.00;;;13.80
68911;BMP180;55953;51.650;-0.522;2023-06-14T05:52:54;100856.00;;;13.80
68911;BMP180;55953;51.650;-0.522;2023-06-14T05:55:22;100854.40;;;13.90
68911;BMP180;55953;51.650;-0.522;2023-06-14T05:57:50;100857.20;;;14.00
68911;BMP180;55953;51.650;-0.522;2023-06-14T06:00:20;100857.80;;;14.06
68911;BMP180;55953;51.650;-0.522;2023-06-14T06:02:48;100858.60;;;14.10
68911;BMP180;55953;51.650;-0.522;2023-06-14T06:05:17;100857.00;;;14.18
68911;BMP180;55953;51.650;-0.522;2023-06-14T06:07:46;100855.40;;;14.20
68911;BMP180;55953;51.650;-0.522;2023-06-14T06:10:13;100857.60;;;14.30
68911;BMP180;55953;51.650;-0.522;2023-06-14T06:12:42;100858.00;;;14.40
68911;BMP180;55953;51.650;-0.522;2023-06-14T06:15:10;100863.40;;;14.48
68911;BMP180;55953;51.650;-0.522;2023-06-14T06:17:40;100861.60;;;14.52
68911;BMP180;55953;51.650;-0.522;2023-06-14T06:20:23;100858.80;;;14.60
68911;BMP180;55953;51.650;-0.522;2023-06-14T06:22:58;100858.80;;;14.70
68911;BMP180;55953;51.650;-0.522;2023-06-14T06:25:27;100865.20;;;14.82
68911;BMP180;55953;51.650;-0.522;2023-06-14T06:27:55;100863.80;;;14.90
68911;BMP180;55953;51.650;-0.522;2023-06-14T06:30:26;100857.40;;;14.98
68911;BMP180;55953;51.650;-0.522;2023-06-14T06:32:54;100862.60;;;15.00
68911;BMP180;55953;51.650;-0.522;2023-06-14T06:35:23;100861.80;;;15.10
68911;BMP180;55953;51.650;-0.522;2023-06-14T06:37:52;100858.60;;;15.20
68911;BMP180;55953;51.650;-0.522;2023-06-14T06:40:20;100857.80;;;15.30
68911;BMP180;55953;51.650;-0.522;2023-06-14T06:42:48;100857.60;;;15.30
68911;BMP180;55953;51.650;-0.522;2023-06-14T06:45:18;100861.60;;;15.40
68911;BMP180;55953;51.650;-0.522;2023-06-14T06:47:46;100864.40;;;15.58
68911;BMP180;55953;51.650;-0.522;2023-06-14T06:50:14;100863.20;;;15.68
68911;BMP180;55953;51.650;-0.522;2023-06-14T06:52:43;100861.40;;;15.80
68911;BMP180;55953;51.650;-0.522;2023-06-14T06:55:12;100862.60;;;15.90
68911;BMP180;55953;51.650;-0.522;2023-06-14T06:57:41;100862.20;;;16.06
68911;BMP180;55953;51.650;-0.522;2023-06-14T07:00:10;100868.80;;;16.20
68911;BMP180;55953;51.650;-0.522;2023-06-14T07:02:38;100868.60;;;16.30
68911;BMP180;55953;51.650;-0.522;2023-06-14T07:05:06;100864.40;;;16.42
68911;BMP180;55953;51.650;-0.522;2023-06-14T07:07:34;100862.40;;;16.60
68911;BMP180;55953;51.650;-0.522;2023-06-14T07:10:04;100865.60;;;16.70
68911;BMP180;55953;51.650;-0.522;2023-06-14T07:12:33;100862.40;;;16.80
68911;BMP180;55953;51.650;-0.522;2023-06-14T07:15:02;100865.20;;;16.90
68911;BMP180;55953;51.650;-0.522;2023-06-14T07:17:30;100864.00;;;17.08
68911;BMP180;55953;51.650;-0.522;2023-06-14T07:19:58;100864.80;;;17.20
68911;BMP180;55953;51.650;-0.522;2023-06-14T07:22:26;100866.40;;;17.30
68911;BMP180;55953;51.650;-0.522;2023-06-14T07:24:54;100865.20;;;17.40
68911;BMP180;55953;51.650;-0.522;2023-06-14T07:27:22;100863.20;;;17.60
68911;BMP180;55953;51.650;-0.522;2023-06-14T07:29:50;100865.40;;;17.64
68911;BMP180;55953;51.650;-0.522;2023-06-14T07:32:18;100872.60;;;17.80
68911;BMP180;55953;51.650;-0.522;2023-06-14T07:34:45;100868.80;;;17.82
68911;BMP180;55953;51.650;-0.522;2023-06-14T07:37:13;100872.80;;;17.92
68911;BMP180;55953;51.650;-0.522;2023-06-14T07:39:41;100872.40;;;18.10
68911;BMP180;55953;51.650;-0.522;2023-06-14T07:42:09;100874.00;;;18.20
68911;BMP180;55953;51.650;-0.522;2023-06-14T07:44:38;100871.00;;;18.30
68911;BMP180;55953;51.650;-0.522;2023-06-14T07:47:06;100870.20;;;18.40
68911;BMP180;55953;51.650;-0.522;2023-06-14T07:49:34;100873.80;;;18.40
68911;BMP180;55953;51.650;-0.522;2023-06-14T07:52:02;100876.20;;;18.50
68911;BMP180;55953;51.650;-0.522;2023-06-14T07:54:30;100875.60;;;18.52
68911;BMP180;55953;51.650;-0.522;2023-06-14T07:57:00;100874.80;;;18.70
68911;BMP180;55953;51.650;-0.522;2023-06-14T07:59:28;100873.80;;;18.96
68911;BMP180;55953;51.650;-0.522;2023-06-14T08:01:56;100874.40;;;19.10
68911;BMP180;55953;51.650;-0.522;2023-06-14T08:04:24;100872.60;;;19.20
68911;BMP180;55953;51.650;-0.522;2023-06-14T08:06:52;100874.80;;;19.32
68911;BMP180;55953;51.650;-0.522;2023-06-14T08:09:20;100873.60;;;19.62
68911;BMP180;55953;51.650;-0.522;2023-06-14T08:11:48;100875.20;;;20.16
68911;BMP180;55953;51.650;-0.522;2023-06-14T08:14:16;100873.00;;;20.50
68911;BMP180;55953;51.650;-0.522;2023-06-14T08:16:44;100875.00;;;20.62
68911;BMP180;55953;51.650;-0.522;2023-06-14T08:19:12;100877.00;;;21.04
68911;BMP180;55953;51.650;-0.522;2023-06-14T08:21:40;100870.60;;;21.40
68911;BMP180;55953;51.650;-0.522;2023-06-14T08:24:08;100870.80;;;21.80
68911;BMP180;55953;51.650;-0.522;2023-06-14T08:26:36;100874.40;;;22.00
68911;BMP180;55953;51.650;-0.522;2023-06-14T08:29:04;100879.60;;;22.20
68911;BMP180;55953;51.650;-0.522;2023-06-14T08:31:34;100874.80;;;22.40
68911;BMP180;55953;51.650;-0.522;2023-06-14T08:34:02;100873.40;;;22.52
68911;BMP180;55953;51.650;-0.522;2023-06-14T08:36:35;100871.20;;;22.62
68911;BMP180;55953;51.650;-0.522;2023-06-14T08:39:03;100870.00;;;22.52
68911;BMP180;55953;51.650;-0.522;2023-06-14T08:41:32;100871.60;;;22.60
68911;BMP180;55953;51.650;-0.522;2023-06-14T08:44:00;100874.40;;;22.50
68911;BMP180;55953;51.650;-0.522;2023-06-14T08:46:32;100875.20;;;22.50
68911;BMP180;55953;51.650;-0.522;2023-06-14T08:49:02;100874.80;;;22.66
68911;BMP180;55953;51.650;-0.522;2023-06-14T08:51:32;100882.40;;;22.60
68911;BMP180;55953;51.650;-0.522;2023-06-14T08:54:04;100877.40;;;22.52
68911;BMP180;55953;51.650;-0.522;2023-06-14T08:56:33;100871.60;;;22.60
68911;BMP180;55953;51.650;-0.522;2023-06-14T08:59:02;100866.40;;;22.64
68911;BMP180;55953;51.650;-0.522;2023-06-14T09:01:34;100877.80;;;22.70
68911;BMP180;55953;51.650;-0.522;2023-06-14T09:04:03;100874.40;;;22.80
68911;BMP180;55953;51.650;-0.522;2023-06-14T09:06:33;100876.00;;;22.78
68911;BMP180;55953;51.650;-0.522;2023-06-14T09:09:00;100875.40;;;22.70
68911;BMP180;55953;51.650;-0.522;2023-06-14T09:11:30;100877.80;;;22.80
68911;BMP180;55953;51.650;-0.522;2023-06-14T09:13:58;100878.80;;;23.00
68911;BMP180;55953;51.650;-0.522;2023-06-14T09:16:26;100879.40;;;23.06
68911;BMP180;55953;51.650;-0.522;2023-06-14T09:18:54;100881.00;;;23.10
68911;BMP180;55953;51.650;-0.522;2023-06-14T09:21:24;100888.40;;;23.08
68911;BMP180;55953;51.650;-0.522;2023-06-14T09:23:52;100887.60;;;22.98
68911;BMP180;55953;51.650;-0.522;2023-06-14T09:26:21;100892.20;;;23.00
68911;BMP180;55953;51.650;-0.522;2023-06-14T09:28:51;100893.60;;;23.00
68911;BMP180;55953;51.650;-0.522;2023-06-14T09:31:20;100895.60;;;23.10
68911;BMP180;55953;51.650;-0.522;2023-06-14T09:33:49;100894.20;;;23.20
68911;BMP180;55953;51.650;-0.522;2023-06-14T09:36:22;100898.20;;;23.30
68911;BMP180;55953;51.650;-0.522;2023-06-14T09:39:01;100899.40;;;23.40
68911;BMP180;55953;51.650;-0.522;2023-06-14T09:41:38;100902.20;;;23.30
68911;BMP180;55953;51.650;-0.522;2023-06-14T09:44:08;100901.80;;;23.30
68911;BMP180;55953;51.650;-0.522;2023-06-14T09:46:44;100896.80;;;23.40
68911;BMP180;55953;51.650;-0.522;2023-06-14T09:49:12;100900.00;;;23.40
68911;BMP180;55953;51.650;-0.522;2023-06-14T09:51:43;100898.00;;;23.42
68911;BMP180;55953;51.650;-0.522;2023-06-14T09:54:16;100897.60;;;23.60
68911;BMP180;55953;51.650;-0.522;2023-06-14T09:56:48;100903.40;;;23.70
68911;BMP180;55953;51.650;-0.522;2023-06-14T09:59:22;100900.00;;;23.70
68911;BMP180;55953;51.650;-0.522;2023-06-14T10:02:07;100900.60;;;23.80
68911;BMP180;55953;51.650;-0.522;2023-06-14T10:04:40;100898.20;;;23.88
68911;BMP180;55953;51.650;-0.522;2023-06-14T10:07:10;100902.20;;;23.92
68911;BMP180;55953;51.650;-0.522;2023-06-14T10:09:38;100898.00;;;24.00
68911;BMP180;55953;51.650;-0.522;2023-06-14T10:12:09;100898.00;;;24.10
68911;BMP180;55953;51.650;-0.522;2023-06-14T10:14:38;100905.00;;;24.10
68911;BMP180;55953;51.650;-0.522;2023-06-14T10:17:19;100900.00;;;24.10
68911;BMP180;55953;51.650;-0.522;2023-06-14T10:23:04;100896.40;;;24.40
68911;BMP180;55953;51.650;-0.522;2023-06-14T10:25:33;100895.00;;;24.40
68911;BMP180;55953;51.650;-0.522;2023-06-14T10:31:42;100898.60;;;24.50
68911;BMP180;55953;51.650;-0.522;2023-06-14T10:34:12;100892.40;;;24.50
68911;BMP180;55953;51.650;-0.522;2023-06-14T10:37:05;100895.60;;;24.60
68911;BMP180;55953;51.650;-0.522;2023-06-14T10:39:43;100892.60;;;24.74
68911;BMP180;55953;51.650;-0.522;2023-06-14T10:42:14;100891.60;;;24.80
68911;BMP180;55953;51.650;-0.522;2023-06-14T10:44:53;100891.20;;;24.90
68911;BMP180;55953;51.650;-0.522;2023-06-14T10:47:36;100888.80;;;24.80
68911;BMP180;55953;51.650;-0.522;2023-06-14T10:50:08;100891.20;;;24.90
68911;BMP180;55953;51.650;-0.522;2023-06-14T10:52:42;100884.00;;;24.90
68911;BMP180;55953;51.650;-0.522;2023-06-14T10:55:16;100886.80;;;24.90
68911;BMP180;55953;51.650;-0.522;2023-06-14T10:57:53;100892.40;;;25.10
68911;BMP180;55953;51.650;-0.522;2023-06-14T11:00:27;100890.00;;;25.14
68911;BMP180;55953;51.650;-0.522;2023-06-14T11:03:31;100886.20;;;25.30
68911;BMP180;55953;51.650;-0.522;2023-06-14T11:06:13;100887.00;;;25.40
68911;BMP180;55953;51.650;-0.522;2023-06-14T11:11:36;100888.80;;;25.50
68911;BMP180;55953;51.650;-0.522;2023-06-14T11:14:04;100887.00;;;25.62
68911;BMP180;55953;51.650;-0.522;2023-06-14T11:16:32;100872.40;;;25.60
68911;BMP180;55953;51.650;-0.522;2023-06-14T11:19:01;100878.60;;;25.58
68911;BMP180;55953;51.650;-0.522;2023-06-14T11:21:34;100872.80;;;25.66
68911;BMP180;55953;51.650;-0.522;2023-06-14T11:24:10;100879.00;;;25.80
68911;BMP180;55953;51.650;-0.522;2023-06-14T11:26:40;100872.00;;;25.98
68911;BMP180;55953;51.650;-0.522;2023-06-14T11:29:08;100864.20;;;26.08
68911;BMP180;55953;51.650;-0.522;2023-06-14T11:31:36;100869.00;;;26.20
68911;BMP180;55953;51.650;-0.522;2023-06-14T11:34:05;100864.20;;;26.30
68911;BMP180;55953;51.650;-0.522;2023-06-14T11:36:34;100867.00;;;26.42
68911;BMP180;55953;51.650;-0.522;2023-06-14T11:39:05;100861.80;;;26.60
68911;BMP180;55953;51.650;-0.522;2023-06-14T11:41:42;100864.60;;;26.62
68911;BMP180;55953;51.650;-0.522;2023-06-14T11:44:11;100865.80;;;26.80
68911;BMP180;55953;51.650;-0.522;2023-06-14T11:46:39;100865.80;;;26.80
68911;BMP180;55953;51.650;-0.522;2023-06-14T11:49:08;100858.20;;;26.90
68911;BMP180;55953;51.650;-0.522;2023-06-14T11:51:37;100855.80;;;27.00
68911;BMP180;55953;51.650;-0.522;2023-06-14T11:54:06;100860.80;;;27.10
68911;BMP180;55953;51.650;-0.522;2023-06-14T11:56:37;100857.20;;;27.22
68911;BMP180;55953;51.650;-0.522;2023-06-14T11:59:05;100861.00;;;27.30
68911;BMP180;55953;51.650;-0.522;2023-06-14T12:01:36;100861.60;;;27.40
68911;BMP180;55953;51.650;-0.522;2023-06-14T12:04:06;100856.80;;;27.54
68911;BMP180;55953;51.650;-0.522;2023-06-14T12:06:34;100857.40;;;27.60
68911;BMP180;55953;51.650;-0.522;2023-06-14T12:09:08;100865.40;;;27.70
68911;BMP180;55953;51.650;-0.522;2023-06-14T12:11:41;100861.60;;;27.86
68911;BMP180;55953;51.650;-0.522;2023-06-14T12:14:09;100865.60;;;27.98
68911;BMP180;55953;51.650;-0.522;2023-06-14T12:16:39;100855.40;;;28.00
68911;BMP180;55953;51.650;-0.522;2023-06-14T12:19:13;100857.60;;;28.16
68911;BMP180;55953;51.650;-0.522;2023-06-14T12:21:46;100860.60;;;28.30
68911;BMP180;55953;51.650;-0.522;2023-06-14T12:24:17;100852.60;;;28.42
68911;BMP180;55953;51.650;-0.522;2023-06-14T12:26:45;100858.60;;;28.60
68911;BMP180;55953;51.650;-0.522;2023-06-14T12:29:14;100856.40;;;28.78
68911;BMP180;55953;51.650;-0.522;2023-06-14T12:31:42;100853.80;;;29.00
68911;BMP180;55953;51.650;-0.522;2023-06-14T12:34:10;100849.20;;;29.10
68911;BMP180;55953;51.650;-0.522;2023-06-14T12:36:38;100852.60;;;29.10
68911;BMP180;55953;51.650;-0.522;2023-06-14T12:39:13;100853.00;;;29.10
68911;BMP180;55953;51.650;-0.522;2023-06-14T12:41:41;100849.00;;;29.10
68911;BMP180;55953;51.650;-0.522;2023-06-14T12:44:11;100845.00;;;29.20
68911;BMP180;55953;51.650;-0.522;2023-06-14T12:46:41;100840.00;;;29.30
68911;BMP180;55953;51.650;-0.522;2023-06-14T12:49:16;100835.60;;;29.36
68911;BMP180;55953;51.650;-0.522;2023-06-14T12:51:44;100840.40;;;29.30
68911;BMP180;55953;51.650;-0.522;2023-06-14T12:54:12;100846.00;;;29.48
68911;BMP180;55953;51.650;-0.522;2023-06-14T12:56:47;100845.00;;;29.70
68911;BMP180;55953;51.650;-0.522;2023-06-14T12:59:15;100851.60;;;29.60
68911;BMP180;55953;51.650;-0.522;2023-06-14T13:01:43;100857.60;;;29.38
68911;BMP180;55953;51.650;-0.522;2023-06-14T13:04:12;100852.00;;;29.32
68911;BMP180;55953;51.650;-0.522;2023-06-14T13:06:40;100850.60;;;29.30
68911;BMP180;55953;51.650;-0.522;2023-06-14T13:09:07;100849.60;;;29.40
68911;BMP180;55953;51.650;-0.522;2023-06-14T13:11:36;100843.80;;;29.62
68911;BMP180;55953;51.650;-0.522;2023-06-14T13:14:04;100840.20;;;29.88
68911;BMP180;55953;51.650;-0.522;2023-06-14T13:16:52;100844.60;;;30.10
68911;BMP180;55953;51.650;-0.522;2023-06-14T13:19:20;100847.40;;;30.20
68911;BMP180;55953;51.650;-0.522;2023-06-14T13:21:48;100847.40;;;30.30
68911;BMP180;55953;51.650;-0.522;2023-06-14T13:24:16;100850.40;;;30.44
68911;BMP180;55953;51.650;-0.522;2023-06-14T13:26:44;100845.40;;;30.60
68911;BMP180;55953;51.650;-0.522;2023-06-14T13:29:12;100842.60;;;30.70
68911;BMP180;55953;51.650;-0.522;2023-06-14T13:31:40;100842.80;;;30.80
68911;BMP180;55953;51.650;-0.522;2023-06-14T13:34:08;100843.00;;;30.96
68911;BMP180;55953;51.650;-0.522;2023-06-14T13:36:36;100839.80;;;30.90
68911;BMP180;55953;51.650;-0.522;2023-06-14T13:39:03;100848.60;;;30.80
68911;BMP180;55953;51.650;-0.522;2023-06-14T13:41:31;100845.20;;;30.80
68911;BMP180;55953;51.650;-0.522;2023-06-14T13:44:02;100843.60;;;30.84
68911;BMP180;55953;51.650;-0.522;2023-06-14T13:46:32;100845.80;;;30.50
68911;BMP180;55953;51.650;-0.522;2023-06-14T13:48:59;100847.20;;;30.20
68911;BMP180;55953;51.650;-0.522;2023-06-14T13:51:28;100839.20;;;30.20
68911;BMP180;55953;51.650;-0.522;2023-06-14T13:53:56;100838.40;;;30.40
68911;BMP180;55953;51.650;-0.522;2023-06-14T13:56:24;100832.60;;;30.52
68911;BMP180;55953;51.650;-0.522;2023-06-14T13:58:52;100834.00;;;30.74
68911;BMP180;55953;51.650;-0.522;2023-06-14T14:01:21;100832.80;;;30.90
68911;BMP180;55953;51.650;-0.522;2023-06-14T14:03:50;100837.60;;;31.14
68911;BMP180;55953;51.650;-0.522;2023-06-14T14:06:18;100836.20;;;31.20
68911;BMP180;55953;51.650;-0.522;2023-06-14T14:08:46;100836.60;;;30.90
68911;BMP180;55953;51.650;-0.522;2023-06-14T14:11:14;100840.80;;;30.48